createdAt,value
2023-03-23T15:59:44.522Z,100054.50
2023-03-23T16:02:23.813Z,100054.16
2023-03-23T16:04:53.208Z,100047.22
2023-03-23T16:07:24.791Z,100052.44
2023-03-23T16:09:53.359Z,100041.88
2023-03-23T16:12:22.045Z,100046.91
2023-03-23T16:14:50.636Z,100046.94
2023-03-23T16:17:21.741Z,100059.47
2023-03-23T16:19:50.647Z,100063.69
2023-03-23T16:22:19.414Z,100065.84
2023-03-23T16:24:48.307Z,100078.66
2023-03-23T16:27:17.489Z,100073.22
2023-03-23T16:30:02.134Z,100055.75
2023-03-23T16:35:01.623Z,100040.16
2023-03-23T16:37:33.438Z,100041.38
2023-03-23T16:40:02.161Z,100043.19
2023-03-23T16:42:30.805Z,100041.56
2023-03-23T16:44:59.374Z,100048.13
2023-03-23T16:47:27.999Z,100061.94
2023-03-23T16:49:57.964Z,100057.13
2023-03-23T16:52:27.252Z,100070.78
2023-03-23T16:54:55.913Z,100058.94
2023-03-23T16:57:24.479Z,100064.44
2023-03-23T16:59:53.060Z,100065.47
2023-03-23T17:02:21.997Z,100072.44
2023-03-23T17:04:50.793Z,100071.34
2023-03-23T17:07:20.880Z,100071.34
2023-03-23T17:09:49.609Z,100071.03
2023-03-23T17:12:18.578Z,100076.03
2023-03-23T17:14:47.169Z,100080.78
2023-03-23T17:17:15.891Z,100081.06
2023-03-23T17:19:44.449Z,100080.81
2023-03-23T17:22:13.148Z,100081.72
2023-03-23T17:24:43.232Z,100078.94
2023-03-23T17:27:12.546Z,100072.47
2023-03-23T17:29:41.194Z,100082.75
2023-03-23T17:32:09.705Z,100079.75
2023-03-23T17:34:38.846Z,100085.00
2023-03-23T17:37:07.479Z,100074.09
2023-03-23T17:39:43.344Z,100080.19
2023-03-23T17:42:14.372Z,100075.44
2023-03-23T17:44:43.010Z,100081.22
2023-03-23T17:47:12.537Z,100078.44
2023-03-23T17:49:41.314Z,100083.50
2023-03-23T17:52:09.875Z,100075.09
2023-03-23T17:54:38.514Z,100078.81
2023-03-23T17:57:07.183Z,100072.31
2023-03-23T17:59:37.319Z,100080.06
2023-03-23T18:02:06.214Z,100080.97
2023-03-23T18:04:35.504Z,100063.97
2023-03-23T18:07:04.059Z,100064.91
2023-03-23T18:09:32.622Z,100070.13
2023-03-23T18:12:01.513Z,100059.38
2023-03-23T18:14:30.276Z,100065.06
2023-03-23T18:17:00.192Z,100054.50
2023-03-23T18:19:29.183Z,100055.91
2023-03-23T18:21:57.773Z,100051.16
2023-03-23T18:24:26.512Z,100047.28
2023-03-23T18:26:56.890Z,100043.59
2023-03-23T18:29:25.476Z,100037.38
2023-03-23T18:31:54.120Z,100040.81
2023-03-23T18:34:24.356Z,100048.13
2023-03-23T18:36:52.957Z,100039.31
2023-03-23T18:39:21.782Z,100052.84
2023-03-23T18:41:50.521Z,100034.06
2023-03-23T18:44:19.123Z,100036.59
2023-03-23T18:46:47.741Z,100040.13
2023-03-23T18:49:16.293Z,100036.03
2023-03-23T18:51:46.213Z,100030.22
2023-03-23T18:56:45.295Z,100011.25
2023-03-23T18:59:13.980Z,100012.13
2023-03-23T19:01:42.643Z,100015.94
2023-03-23T19:04:13.476Z,100014.53
2023-03-23T19:06:42.381Z,100016.19
2023-03-23T19:09:12.301Z,100015.47
2023-03-23T19:11:40.847Z,100019.50
2023-03-23T19:14:09.432Z,100012.00
2023-03-23T19:16:38.065Z,100005.44
2023-03-23T19:19:09.013Z,100007.28
2023-03-23T19:21:39.621Z,100006.91
2023-03-23T19:24:11.331Z,100009.84
2023-03-23T19:26:42.107Z,100003.66
2023-03-23T19:31:46.577Z,100000.66
2023-03-23T19:34:16.732Z,99987.56
2023-03-23T19:36:53.801Z,99987.28
2023-03-23T19:39:26.161Z,99975.81
2023-03-23T19:41:56.263Z,99970.94
2023-03-23T19:44:25.418Z,99962.19
2023-03-23T19:46:54.537Z,99965.22
2023-03-23T19:49:23.107Z,99964.28
2023-03-23T19:51:52.544Z,99968.41
2023-03-23T19:54:39.542Z,99956.94
2023-03-23T19:57:09.997Z,99962.03
2023-03-23T19:59:39.439Z,99959.44
2023-03-23T20:02:08.780Z,99952.88
2023-03-23T20:04:37.666Z,99958.81
2023-03-23T20:07:07.772Z,99951.94
2023-03-23T20:09:38.671Z,99950.44
2023-03-23T20:12:07.846Z,99953.59
2023-03-23T20:14:37.496Z,99950.47
2023-03-23T20:17:09.877Z,99946.66
2023-03-23T20:19:39.771Z,99934.13
2023-03-23T20:22:08.947Z,99938.22
2023-03-23T20:24:38.887Z,99935.47
2023-03-23T20:27:07.986Z,99936.31
2023-03-23T20:29:36.744Z,99935.16
2023-03-23T20:32:06.946Z,99922.16
2023-03-23T20:34:36.228Z,99909.19
2023-03-23T20:37:05.164Z,99900.66
2023-03-23T20:39:34.487Z,99899.81
2023-03-23T20:42:06.502Z,99917.50
2023-03-23T20:44:36.170Z,99900.06
2023-03-23T20:47:06.075Z,99896.50
2023-03-23T20:49:37.221Z,99892.84
2023-03-23T20:52:08.247Z,99897.03
2023-03-23T20:54:38.003Z,99899.53
2023-03-23T20:57:08.489Z,99900.63
2023-03-23T20:59:37.374Z,99899.00
2023-03-23T21:02:06.261Z,99892.03
2023-03-23T21:04:37.223Z,99905.84
2023-03-23T21:07:06.296Z,99905.03
2023-03-23T21:09:34.844Z,99914.53
2023-03-23T21:12:06.213Z,99901.81
2023-03-23T21:14:36.872Z,99909.59
2023-03-23T21:17:06.585Z,99899.53
2023-03-23T21:19:35.979Z,99907.66
2023-03-23T21:22:05.268Z,99907.88
2023-03-23T21:24:37.409Z,99895.56
2023-03-23T21:27:06.445Z,99898.13
2023-03-23T21:29:36.515Z,99894.50
2023-03-23T21:32:08.588Z,99889.53
2023-03-23T21:34:38.451Z,99888.81
2023-03-23T21:37:07.178Z,99881.81
2023-03-23T21:39:35.989Z,99881.13
2023-03-23T21:42:06.989Z,99882.81
2023-03-23T21:44:39.065Z,99891.31
2023-03-23T21:47:08.208Z,99882.03
2023-03-23T21:49:40.739Z,99881.91
2023-03-23T21:52:09.971Z,99881.81
2023-03-23T21:54:38.503Z,99884.94
2023-03-23T21:57:07.108Z,99875.78
2023-03-23T21:59:37.078Z,99884.88
2023-03-23T22:02:05.693Z,99878.38
2023-03-23T22:04:34.307Z,99881.59
2023-03-23T22:07:02.885Z,99871.81
2023-03-23T22:09:31.964Z,99873.59
2023-03-23T22:12:00.537Z,99870.88
2023-03-23T22:14:29.177Z,99871.09
2023-03-23T22:17:00.498Z,99869.38
2023-03-23T22:19:29.062Z,99864.16
2023-03-23T22:21:57.607Z,99869.88
2023-03-23T22:24:26.439Z,99862.69
2023-03-23T22:26:55.316Z,99859.22
2023-03-23T22:29:24.015Z,99854.91
2023-03-23T22:31:52.616Z,99852.44
2023-03-23T22:34:22.599Z,99849.50
2023-03-23T22:36:51.607Z,99850.97
2023-03-23T22:39:20.185Z,99846.72
2023-03-23T22:41:48.783Z,99835.94
2023-03-23T22:44:19.481Z,99831.06
2023-03-23T22:46:48.160Z,99829.75
2023-03-23T22:49:16.738Z,99827.78
2023-03-23T22:51:47.133Z,99825.19
2023-03-23T22:54:15.676Z,99826.97
2023-03-23T22:56:44.345Z,99816.72
2023-03-23T22:59:13.650Z,99810.59
2023-03-23T23:01:42.247Z,99809.25
2023-03-23T23:04:11.076Z,99803.78
2023-03-23T23:06:39.879Z,99795.34
2023-03-23T23:09:10.470Z,99797.94
2023-03-23T23:11:39.355Z,99783.19
2023-03-23T23:14:07.925Z,99785.63
2023-03-23T23:16:36.546Z,99781.50
2023-03-23T23:19:05.754Z,99779.91
2023-03-23T23:21:34.469Z,99771.28
2023-03-23T23:24:03.868Z,99769.81
2023-03-23T23:26:34.027Z,99764.47
2023-03-23T23:29:03.058Z,99762.31
2023-03-23T23:31:34.384Z,99754.09
2023-03-23T23:34:04.516Z,99751.94
2023-03-23T23:36:33.659Z,99755.00
2023-03-23T23:39:05.889Z,99751.75
2023-03-23T23:41:36.160Z,99756.28
2023-03-23T23:44:05.658Z,99740.78
2023-03-23T23:46:34.555Z,99741.63
2023-03-23T23:49:03.311Z,99739.16
2023-03-23T23:51:33.631Z,99739.63
2023-03-23T23:54:02.590Z,99737.31
2023-03-23T23:56:31.271Z,99741.41
2023-03-23T23:59:01.231Z,99728.25
